createdAt,value
2023-03-23T00:02:01.688Z,23.34
2023-03-23T00:06:01.675Z,23.33
2023-03-23T00:10:01.710Z,23.33
2023-03-23T00:14:01.664Z,23.32
2023-03-23T00:18:01.690Z,23.32
2023-03-23T00:22:01.665Z,23.32
2023-03-23T00:26:01.665Z,23.31
2023-03-23T00:30:01.682Z,23.31
2023-03-23T00:34:01.679Z,23.31
2023-03-23T00:38:01.692Z,23.30
2023-03-23T00:42:01.723Z,23.30
2023-03-23T00:46:01.717Z,23.29
2023-03-23T00:50:01.742Z,23.28
2023-03-23T00:54:01.807Z,23.28
2023-03-23T00:58:01.774Z,23.27
2023-03-23T01:02:01.776Z,23.27
2023-03-23T01:06:01.791Z,23.27
2023-03-23T01:10:01.837Z,23.26
2023-03-23T01:14:01.846Z,23.26
2023-03-23T01:18:01.882Z,23.26
2023-03-23T01:22:01.919Z,23.25
2023-03-23T01:26:01.952Z,23.25
2023-03-23T01:30:01.997Z,23.24
2023-03-23T01:34:02.066Z,23.24
2023-03-23T01:38:02.083Z,23.24
2023-03-23T01:42:02.282Z,23.23
2023-03-23T01:46:02.176Z,23.23
2023-03-23T01:50:02.256Z,23.23
2023-03-23T01:54:02.319Z,23.22
2023-03-23T01:58:02.372Z,23.22
2023-03-23T02:02:02.384Z,23.22
2023-03-23T02:06:02.502Z,23.21
2023-03-23T02:10:02.505Z,23.20
2023-03-23T02:14:02.562Z,23.20
2023-03-23T02:18:02.630Z,23.20
2023-03-23T02:22:02.665Z,23.19
2023-03-23T02:26:02.727Z,23.19
2023-03-23T02:30:02.812Z,23.19
2023-03-23T02:34:02.892Z,23.19
2023-03-23T02:38:02.931Z,23.18
2023-03-23T02:42:02.966Z,23.18
2023-03-23T02:46:03.843Z,23.17
2023-03-23T02:50:02.780Z,23.17
2023-03-23T02:54:02.711Z,23.17
2023-03-23T02:58:02.590Z,23.17
2023-03-23T03:02:02.587Z,23.16
2023-03-23T03:06:02.683Z,23.16
2023-03-23T03:10:02.733Z,23.15
2023-03-23T03:14:02.837Z,23.14
2023-03-23T03:18:02.859Z,23.15
2023-03-23T03:22:02.964Z,23.13
2023-03-23T03:26:03.022Z,23.14
2023-03-23T03:30:03.077Z,23.12
2023-03-23T03:34:03.156Z,23.13
2023-03-23T03:38:03.217Z,23.12
2023-03-23T03:42:03.272Z,23.12
2023-03-23T03:46:03.316Z,23.12
2023-03-23T03:50:03.405Z,23.11
2023-03-23T03:54:03.412Z,23.11
2023-03-23T03:58:03.527Z,23.11
2023-03-23T04:02:03.572Z,23.11
2023-03-23T04:06:03.646Z,23.10
2023-03-23T04:10:03.712Z,23.10
2023-03-23T04:14:03.764Z,23.10
2023-03-23T04:18:03.836Z,23.08
2023-03-23T04:22:03.894Z,23.08
2023-03-23T04:26:03.969Z,23.08
2023-03-23T04:30:04.070Z,23.08
2023-03-23T04:34:04.145Z,23.07
2023-03-23T04:38:04.194Z,23.07
2023-03-23T04:42:04.277Z,23.06
2023-03-23T04:46:04.401Z,23.06
2023-03-23T04:50:04.491Z,23.06
2023-03-23T04:54:04.547Z,23.06
2023-03-23T04:58:04.633Z,23.06
2023-03-23T05:02:14.365Z,23.06
2023-03-23T05:06:05.679Z,23.05
2023-03-23T05:10:04.621Z,23.04
2023-03-23T05:14:04.488Z,23.04
2023-03-23T05:18:04.541Z,23.04
2023-03-23T05:22:04.676Z,23.04
2023-03-23T05:26:04.749Z,23.04
2023-03-23T05:30:04.838Z,23.03
2023-03-23T05:34:04.948Z,23.03
2023-03-23T05:38:05.015Z,23.03
2023-03-23T05:42:05.096Z,23.03
2023-03-23T05:46:05.173Z,23.03
2023-03-23T05:50:05.254Z,23.03
2023-03-23T05:54:05.343Z,23.02
2023-03-23T05:58:05.395Z,23.02
2023-03-23T06:02:05.491Z,23.04
2023-03-23T06:06:05.554Z,23.06
2023-03-23T06:10:05.658Z,23.08
2023-03-23T06:14:05.677Z,23.10
2023-03-23T06:18:05.735Z,23.12
2023-03-23T06:22:05.813Z,23.13
2023-03-23T06:26:05.861Z,23.14
2023-03-23T06:30:05.961Z,23.13
2023-03-23T06:34:06.052Z,23.13
2023-03-23T06:38:06.363Z,23.13
2023-03-23T06:42:06.155Z,23.19
2023-03-23T06:46:06.388Z,23.24
2023-03-23T06:50:06.373Z,23.32
2023-03-23T06:54:06.361Z,23.40
2023-03-23T06:58:06.137Z,23.51
2023-03-23T07:02:06.405Z,23.61
2023-03-23T07:06:07.029Z,23.72
2023-03-23T07:10:06.383Z,23.81
2023-03-23T07:14:06.319Z,23.90
2023-03-23T07:18:06.469Z,24.01
2023-03-23T07:22:06.629Z,24.09
2023-03-23T07:26:06.683Z,24.13
2023-03-23T07:30:06.798Z,24.19
2023-03-23T07:34:06.934Z,24.25
2023-03-23T07:38:07.066Z,24.32
2023-03-23T07:42:07.379Z,24.34
2023-03-23T07:46:07.393Z,24.36
2023-03-23T07:50:07.352Z,24.36
2023-03-23T07:54:07.384Z,23.39
2023-03-23T07:58:07.883Z,23.11
2023-03-23T08:02:07.459Z,23.49
2023-03-23T08:06:07.927Z,23.81
2023-03-23T08:10:07.572Z,24.08
2023-03-23T08:14:07.909Z,24.25
2023-03-23T08:18:07.335Z,24.38
2023-03-23T08:22:07.239Z,24.49
2023-03-23T08:26:07.129Z,24.53
2023-03-23T08:30:07.412Z,24.58
2023-03-23T08:34:06.888Z,24.63
2023-03-23T08:38:06.915Z,24.70
2023-03-23T08:42:06.937Z,24.70
2023-03-23T08:46:06.935Z,24.63
2023-03-23T08:50:06.321Z,24.58
2023-03-23T08:54:06.403Z,24.50
2023-03-23T08:58:06.454Z,24.43
2023-03-23T09:02:06.419Z,24.39
2023-03-23T09:06:06.406Z,24.35
2023-03-23T09:10:06.444Z,24.32
2023-03-23T09:14:06.612Z,24.28
2023-03-23T09:18:06.925Z,24.29
2023-03-23T09:22:06.360Z,24.27
2023-03-23T09:26:06.212Z,24.24
2023-03-23T09:30:06.097Z,24.22
2023-03-23T09:34:06.059Z,24.19
2023-03-23T09:38:06.441Z,24.16
2023-03-23T09:42:05.888Z,24.18
2023-03-23T09:46:05.943Z,24.22
2023-03-23T09:50:05.947Z,24.36
2023-03-23T09:54:06.450Z,24.32
2023-03-23T09:58:06.488Z,24.06
2023-03-23T10:02:06.077Z,24.20
2023-03-23T10:06:06.030Z,24.31
2023-03-23T10:10:05.962Z,24.38
2023-03-23T10:14:05.867Z,24.47
2023-03-23T10:18:05.783Z,24.55
2023-03-23T10:22:05.682Z,24.64
2023-03-23T10:26:05.609Z,24.74
2023-03-23T10:30:05.545Z,24.80
2023-03-23T10:34:05.434Z,24.85
2023-03-23T10:38:05.310Z,24.89
2023-03-23T10:42:05.447Z,24.90
2023-03-23T10:46:05.740Z,24.79
2023-03-23T10:50:05.456Z,24.74
2023-03-23T10:54:05.462Z,24.78
2023-03-23T10:58:04.947Z,24.79
2023-03-23T11:02:04.884Z,24.80
2023-03-23T11:06:05.028Z,24.79
2023-03-23T11:10:04.683Z,24.78
2023-03-23T11:14:04.622Z,24.78
2023-03-23T11:18:04.989Z,24.75
2023-03-23T11:22:04.446Z,24.75
2023-03-23T11:26:04.476Z,24.76
2023-03-23T11:30:04.223Z,24.79
2023-03-23T11:34:06.230Z,24.82
2023-03-23T11:38:04.504Z,24.78
2023-03-23T11:42:09.569Z,24.71
2023-03-23T11:46:04.899Z,24.64
2023-03-23T11:50:03.769Z,24.57
2023-03-23T11:54:03.729Z,24.55
2023-03-23T11:58:03.603Z,24.53
2023-03-23T12:02:16.770Z,24.51
2023-03-23T12:06:04.499Z,24.52
2023-03-23T12:10:03.993Z,24.48
2023-03-23T12:14:03.608Z,24.44
2023-03-23T12:18:03.744Z,24.41
2023-03-23T12:22:03.820Z,24.35
2023-03-23T12:26:04.000Z,24.34
2023-03-23T12:30:04.540Z,24.30
2023-03-23T12:34:04.483Z,24.27
2023-03-23T12:38:04.438Z,24.27
2023-03-23T12:42:04.545Z,24.26
2023-03-23T12:46:05.010Z,24.27
2023-03-23T12:50:04.888Z,24.26
2023-03-23T12:54:05.516Z,24.24
2023-03-23T12:58:04.916Z,24.24
2023-03-23T13:02:05.015Z,24.26
2023-03-23T13:06:04.761Z,24.26
2023-03-23T13:10:05.390Z,24.26
2023-03-23T13:14:04.612Z,24.26
2023-03-23T13:18:05.029Z,24.28
2023-03-23T13:22:04.530Z,24.30
2023-03-23T13:26:04.559Z,24.32
2023-03-23T13:30:04.506Z,24.30
2023-03-23T13:34:04.576Z,24.32
2023-03-23T13:38:04.734Z,24.32
2023-03-23T13:42:04.832Z,24.32
2023-03-23T13:46:05.001Z,24.32
2023-03-23T13:50:05.166Z,24.34
2023-03-23T13:54:05.268Z,24.35
2023-03-23T13:58:05.430Z,24.36
2023-03-23T14:02:05.526Z,24.36
2023-03-23T14:06:05.675Z,24.35
2023-03-23T14:10:05.783Z,24.33
2023-03-23T14:14:06.065Z,24.32
2023-03-23T14:18:06.556Z,24.30
2023-03-23T14:22:06.236Z,24.32
2023-03-23T14:30:06.343Z,24.20
2023-03-23T14:34:06.311Z,24.24
2023-03-23T14:38:06.212Z,24.26
2023-03-23T14:46:06.194Z,24.26
2023-03-23T14:54:06.263Z,24.22
2023-03-23T14:58:06.226Z,24.23
2023-03-23T15:02:06.619Z,24.23
2023-03-23T15:06:06.108Z,24.24
2023-03-23T15:10:06.021Z,24.25
2023-03-23T15:14:06.598Z,24.25
2023-03-23T15:18:06.435Z,24.23
2023-03-23T15:22:06.587Z,24.24
2023-03-23T15:26:06.751Z,24.24
2023-03-23T15:30:06.927Z,24.25
2023-03-23T15:34:07.097Z,24.26
2023-03-23T15:38:07.227Z,24.27
2023-03-23T15:42:07.385Z,24.28
2023-03-23T15:46:07.550Z,24.28
2023-03-23T15:50:07.690Z,24.27
2023-03-23T15:54:12.463Z,24.27
2023-03-23T15:58:08.808Z,24.25
2023-03-23T16:02:07.767Z,24.25
2023-03-23T16:06:07.740Z,24.25
2023-03-23T16:10:07.949Z,24.24
2023-03-23T16:14:08.107Z,24.24
2023-03-23T16:18:08.134Z,24.24
2023-03-23T16:22:07.989Z,24.23
2023-03-23T16:26:07.935Z,24.24
2023-03-23T16:30:07.832Z,24.23
2023-03-23T16:34:07.769Z,24.22
2023-03-23T16:38:09.209Z,24.22
2023-03-23T16:42:07.616Z,24.21
2023-03-23T16:46:07.567Z,24.20
2023-03-23T16:50:07.473Z,24.20
2023-03-23T16:54:07.638Z,24.19
2023-03-23T16:58:16.551Z,24.18
2023-03-23T17:02:08.499Z,24.18
2023-03-23T17:06:07.674Z,24.18
2023-03-23T17:10:07.494Z,24.17
2023-03-23T17:14:07.429Z,24.17
2023-03-23T17:18:07.384Z,24.16
2023-03-23T17:22:07.287Z,24.16
2023-03-23T17:26:07.265Z,24.16
2023-03-23T17:30:07.167Z,24.16
2023-03-23T17:34:07.113Z,24.15
2023-03-23T17:38:07.026Z,24.14
2023-03-23T17:42:06.956Z,24.14
2023-03-23T17:46:06.918Z,24.14
2023-03-23T17:50:11.496Z,24.14
2023-03-23T17:54:07.756Z,24.13
2023-03-23T17:58:06.723Z,24.13
2023-03-23T18:02:06.801Z,24.13
2023-03-23T18:06:06.924Z,24.12
2023-03-23T18:10:07.126Z,24.12
2023-03-23T18:14:07.334Z,24.11
2023-03-23T18:18:07.544Z,24.10
2023-03-23T18:22:07.521Z,24.10
2023-03-23T18:26:07.439Z,24.10
2023-03-23T18:30:07.377Z,24.09
2023-03-23T18:34:07.359Z,24.09
2023-03-23T18:38:07.267Z,24.07
2023-03-23T18:42:07.195Z,24.08
2023-03-23T18:46:07.219Z,24.07
2023-03-23T18:50:07.149Z,24.07
2023-03-23T18:54:07.012Z,24.06
2023-03-23T18:58:07.115Z,24.05
2023-03-23T19:02:08.222Z,24.04
2023-03-23T19:06:07.309Z,24.05
2023-03-23T19:10:07.234Z,24.04
2023-03-23T19:14:07.204Z,24.03
2023-03-23T19:18:07.140Z,24.02
2023-03-23T19:22:07.083Z,24.02
2023-03-23T19:26:07.045Z,24.00
2023-03-23T19:30:06.978Z,23.99
2023-03-23T19:34:06.925Z,23.99
2023-03-23T19:38:06.874Z,23.97
2023-03-23T19:42:07.198Z,23.96
2023-03-23T19:46:06.932Z,23.95
2023-03-23T19:50:07.016Z,23.95
2023-03-23T19:54:06.860Z,23.93
2023-03-23T19:58:06.786Z,23.92
2023-03-23T20:02:06.824Z,23.92
2023-03-23T20:06:07.162Z,23.89
2023-03-23T20:10:06.694Z,23.89
2023-03-23T20:14:06.973Z,23.89
2023-03-23T20:18:06.741Z,23.89
2023-03-23T20:22:06.640Z,23.90
2023-03-23T20:26:06.871Z,23.90
2023-03-23T20:30:06.959Z,23.89
2023-03-23T20:34:07.112Z,23.89
2023-03-23T20:38:07.207Z,23.89
2023-03-23T20:42:07.306Z,23.89
2023-03-23T20:46:07.470Z,23.88
2023-03-23T20:50:07.557Z,23.87
2023-03-23T20:54:07.672Z,23.87
2023-03-23T20:58:07.700Z,23.86
2023-03-23T21:02:07.751Z,23.87
2023-03-23T21:06:07.911Z,23.86
2023-03-23T21:10:08.094Z,23.86
2023-03-23T21:14:08.115Z,23.85
2023-03-23T21:18:08.235Z,23.85
2023-03-23T21:22:08.334Z,23.85
2023-03-23T21:26:08.328Z,23.84
2023-03-23T21:30:08.387Z,23.84
2023-03-23T21:34:08.508Z,23.83
2023-03-23T21:38:08.563Z,23.82
2023-03-23T21:42:08.664Z,23.82
2023-03-23T21:46:08.757Z,23.81
2023-03-23T21:50:08.795Z,23.81
2023-03-23T21:54:08.953Z,23.81
2023-03-23T21:58:09.001Z,23.79
2023-03-23T22:02:09.069Z,23.79
2023-03-23T22:06:09.206Z,23.80
2023-03-23T22:10:09.255Z,23.79
2023-03-23T22:14:09.331Z,23.79
2023-03-23T22:18:09.452Z,23.78
2023-03-23T22:22:09.465Z,23.78
2023-03-23T22:26:09.575Z,23.77
2023-03-23T22:30:09.627Z,23.77
2023-03-23T22:34:09.748Z,23.77
2023-03-23T22:38:09.773Z,23.76
2023-03-23T22:42:11.755Z,23.76
2023-03-23T22:46:09.892Z,23.76
2023-03-23T22:50:09.804Z,23.75
2023-03-23T22:54:09.723Z,23.75
2023-03-23T22:58:09.683Z,23.74
2023-03-23T23:02:09.594Z,23.74
2023-03-23T23:06:09.553Z,23.74
2023-03-23T23:10:09.501Z,23.73
2023-03-23T23:14:09.427Z,23.73
2023-03-23T23:18:09.361Z,23.73
2023-03-23T23:22:18.288Z,23.73
2023-03-23T23:26:10.235Z,23.72
2023-03-23T23:30:09.157Z,23.71
2023-03-23T23:34:09.104Z,23.72
2023-03-23T23:38:09.160Z,23.71
2023-03-23T23:42:09.184Z,23.71
2023-03-23T23:46:09.287Z,23.70
2023-03-23T23:50:09.416Z,23.70
2023-03-23T23:54:09.499Z,23.70
2023-03-23T23:58:09.588Z,23.70
